Terminal Aerodrome Forecast
Issued by NWS

Home | Current Version | Previous Version | Text Only | Print | Product List | Glossary On
Versions: 1 2 3 4 5 6 7 8 9 10 11 12 13 14 15 16 17 18 19 20 21 22 23 24 25 26 27 28 29 30 31
000
FTUS43 KDLH 221700
TAFHIB
TAF
KHIB 221732Z 2218/2318 16014G21KT P6SM SCT045
      TEMPO 2218/2221 BKN045
     FM222100 16012G24KT P6SM SCT070 BKN250
     FM230200 17008KT P6SM VCSH SCT035 OVC050 WS020/18035KT
     FM230800 18004KT 6SM -RA SCT018 OVC035
     FM231300 21005KT P6SM SCT035=

USA.gov is the U.S. government's official web portal to all federal, state and local government web resources and services.